createdAt,value
2023-01-10T00:02:26.594Z,2.80
2023-01-10T00:04:53.337Z,3.30
2023-01-10T00:07:20.195Z,3.10
2023-01-10T00:09:46.971Z,3.80
2023-01-10T00:12:32.516Z,2.80
2023-01-10T00:14:59.531Z,3.40
2023-01-10T00:17:26.347Z,2.90
2023-01-10T00:19:53.176Z,3.50
2023-01-10T00:22:23.548Z,2.80
2023-01-10T00:24:50.263Z,3.50
2023-01-10T00:27:22.693Z,3.20
2023-01-10T00:29:52.899Z,3.50
2023-01-10T00:32:20.467Z,3.80
2023-01-10T00:34:47.200Z,4.00
2023-01-10T00:37:14.315Z,3.80
2023-01-10T00:39:41.196Z,3.20
2023-01-10T00:42:28.674Z,3.40
2023-01-10T00:44:55.436Z,3.30
2023-01-10T00:47:22.325Z,4.30
2023-01-10T00:49:49.179Z,3.10
2023-01-10T00:52:15.971Z,3.60
2023-01-10T00:54:42.734Z,2.90
2023-01-10T00:57:09.520Z,3.30
2023-01-10T00:59:36.212Z,3.80
2023-01-10T01:02:03.058Z,3.40
2023-01-10T01:04:34.134Z,3.60
2023-01-10T01:07:02.240Z,3.30
2023-01-10T01:09:29.859Z,4.10
2023-01-10T01:11:57.107Z,3.50
2023-01-10T01:16:51.421Z,3.70
2023-01-10T01:19:18.428Z,3.90
2023-01-10T01:21:45.270Z,3.40
2023-01-10T01:24:12.102Z,4.20
2023-01-10T01:26:39.904Z,4.10
2023-01-10T01:29:06.676Z,3.70
2023-01-10T01:31:33.513Z,3.40
2023-01-10T01:34:00.505Z,4.10
2023-01-10T01:36:27.332Z,4.30
2023-01-10T01:38:54.058Z,3.80
2023-01-10T01:41:39.625Z,3.60
2023-01-10T01:44:10.632Z,4.00
2023-01-10T01:46:38.009Z,4.10
2023-01-10T01:49:07.121Z,3.90
2023-01-10T01:51:33.898Z,3.90
2023-01-10T01:54:07.663Z,4.00
2023-01-10T01:56:55.828Z,4.50
2023-01-10T01:59:47.158Z,4.80
2023-01-10T02:02:18.301Z,3.70
2023-01-10T02:04:59.925Z,3.90
2023-01-10T02:07:28.532Z,4.10
2023-01-10T02:09:58.612Z,3.60
2023-01-10T02:12:25.607Z,3.80
2023-01-10T02:14:52.297Z,3.90
2023-01-10T02:17:19.291Z,3.80
2023-01-10T02:19:59.449Z,3.60
2023-01-10T02:22:54.591Z,3.70
2023-01-10T02:25:43.435Z,4.20
2023-01-10T02:28:20.541Z,3.30
2023-01-10T02:30:47.383Z,3.70
2023-01-10T02:33:24.582Z,4.50
2023-01-10T02:36:10.517Z,3.90
2023-01-10T02:39:01.853Z,4.50
2023-01-10T02:41:53.179Z,3.80
2023-01-10T02:44:24.856Z,3.30
2023-01-10T02:46:51.969Z,4.40
2023-01-10T02:49:19.552Z,4.00
2023-01-10T02:51:46.288Z,4.00
2023-01-10T02:54:25.443Z,4.20
2023-01-10T02:56:52.127Z,4.40
2023-01-10T02:59:54.063Z,4.50
2023-01-10T03:02:27.024Z,4.80
2023-01-10T03:05:02.340Z,4.50
2023-01-10T03:08:07.839Z,4.20
2023-01-10T03:10:40.607Z,4.30
2023-01-10T03:13:13.416Z,3.90
2023-01-10T03:15:40.515Z,3.80
2023-01-10T03:20:36.144Z,3.60
2023-01-10T03:23:03.580Z,4.60
2023-01-10T03:28:12.930Z,5.10
2023-01-10T03:30:42.041Z,4.00
2023-01-10T03:33:08.783Z,4.50
2023-01-10T03:35:57.653Z,4.80
2023-01-10T03:38:27.633Z,5.20
2023-01-10T03:41:07.804Z,5.30
2023-01-10T03:44:16.589Z,5.10
2023-01-10T03:47:00.968Z,5.50
2023-01-10T03:49:28.038Z,5.30
2023-01-10T03:51:54.800Z,5.20
2023-01-10T03:54:21.510Z,4.80
2023-01-10T03:56:52.366Z,4.60
2023-01-10T03:59:19.855Z,4.80
2023-01-10T04:01:46.847Z,5.10
2023-01-10T04:04:13.786Z,5.60
2023-01-10T04:06:41.673Z,5.50
2023-01-10T04:09:08.741Z,6.40
2023-01-10T04:11:35.525Z,5.20
2023-01-10T04:14:02.320Z,5.80
2023-01-10T04:16:29.096Z,5.20
2023-01-10T04:18:56.232Z,5.50
2023-01-10T04:21:22.937Z,5.60
2023-01-10T04:23:49.688Z,5.30
2023-01-10T04:26:16.373Z,6.80
2023-01-10T04:28:43.145Z,5.50
2023-01-10T04:31:09.871Z,5.40
2023-01-10T04:33:36.680Z,5.50
2023-01-10T04:36:03.537Z,6.40
2023-01-10T04:38:30.260Z,6.40
2023-01-10T04:40:57.253Z,5.60
2023-01-10T04:43:24.726Z,7.70
2023-01-10T04:45:51.670Z,6.10
2023-01-10T04:48:18.581Z,6.30
2023-01-10T04:50:52.166Z,7.10
2023-01-10T04:53:18.939Z,7.60
2023-01-10T04:55:46.071Z,7.00
2023-01-10T04:58:12.952Z,7.00
2023-01-10T05:00:39.714Z,6.60
2023-01-10T05:03:06.623Z,6.20
2023-01-10T05:05:33.405Z,5.90
2023-01-10T05:08:00.129Z,5.60
2023-01-10T05:10:26.821Z,5.10
2023-01-10T05:12:53.507Z,5.50
2023-01-10T05:15:21.263Z,5.30
2023-01-10T05:17:48.003Z,6.30
2023-01-10T05:20:15.118Z,6.00
2023-01-10T05:22:42.305Z,6.80
2023-01-10T05:25:13.867Z,6.60
2023-01-10T05:27:42.957Z,6.70
2023-01-10T05:30:13.373Z,5.90
2023-01-10T05:32:40.125Z,6.10
2023-01-10T05:35:07.436Z,6.60
2023-01-10T05:40:00.772Z,6.90
2023-01-10T05:42:27.518Z,6.10
2023-01-10T05:44:54.212Z,5.80
2023-01-10T05:47:20.908Z,5.30
2023-01-10T05:49:47.619Z,5.30
2023-01-10T05:52:14.835Z,5.60
2023-01-10T05:54:42.440Z,5.90
2023-01-10T05:57:09.198Z,5.60
2023-01-10T05:59:36.075Z,6.10
2023-01-10T06:02:02.849Z,6.70
2023-01-10T06:04:29.712Z,5.50
2023-01-10T06:06:56.453Z,5.50
2023-01-10T06:09:23.154Z,6.30
2023-01-10T06:11:49.958Z,6.40
2023-01-10T06:14:19.537Z,6.90
2023-01-10T06:16:47.183Z,7.30
2023-01-10T06:19:14.205Z,7.40
2023-01-10T06:24:08.580Z,6.30
2023-01-10T06:29:02.086Z,7.20
2023-01-10T06:31:28.893Z,7.90
2023-01-10T06:33:55.890Z,7.40
2023-01-10T06:36:22.612Z,7.60
2023-01-10T06:38:49.441Z,7.10
2023-01-10T06:41:16.468Z,8.30
2023-01-10T06:43:45.502Z,8.60
2023-01-10T06:46:13.499Z,8.00
2023-01-10T06:48:40.422Z,8.80
2023-01-10T06:51:07.319Z,8.10
2023-01-10T06:53:34.455Z,9.10
2023-01-10T06:56:01.246Z,9.20
2023-01-10T06:58:27.993Z,10.00
2023-01-10T07:00:54.777Z,10.50
2023-01-10T07:03:21.630Z,12.10
2023-01-10T07:05:48.370Z,12.90
2023-01-10T07:08:15.144Z,11.80
2023-01-10T07:10:42.371Z,16.40
2023-01-10T07:15:36.084Z,12.10
2023-01-10T07:18:03.011Z,11.80
2023-01-10T07:20:29.759Z,11.80
2023-01-10T07:23:00.360Z,12.30
2023-01-10T07:25:28.492Z,11.10
2023-01-10T07:27:58.330Z,12.00
2023-01-10T07:30:26.119Z,11.50
2023-01-10T07:33:03.914Z,13.30
2023-01-10T07:35:30.631Z,10.90
2023-01-10T07:38:00.612Z,11.30
2023-01-10T07:40:27.493Z,13.80
2023-01-10T07:43:01.505Z,12.90
2023-01-10T07:45:28.863Z,13.40
2023-01-10T07:48:02.874Z,13.80
2023-01-10T07:50:30.835Z,14.20
2023-01-10T07:52:59.176Z,12.00
2023-01-10T07:55:27.554Z,13.40
2023-01-10T07:57:54.524Z,11.60
2023-01-10T08:00:21.355Z,11.50
2023-01-10T08:02:48.445Z,10.70
2023-01-10T08:05:15.278Z,11.00
2023-01-10T08:07:42.094Z,10.70
2023-01-10T08:10:09.724Z,10.60
2023-01-10T08:12:36.850Z,11.40
2023-01-10T08:15:04.014Z,10.60
2023-01-10T08:17:34.050Z,9.90
2023-01-10T08:20:00.837Z,10.80
2023-01-10T08:22:27.561Z,12.00
2023-01-10T08:24:54.604Z,10.90
2023-01-10T08:27:21.303Z,10.60
2023-01-10T08:29:48.092Z,11.40
2023-01-10T08:32:14.798Z,10.80
2023-01-10T08:34:41.490Z,10.20
2023-01-10T08:37:10.880Z,10.50
2023-01-10T08:39:39.255Z,11.40
2023-01-10T08:42:06.156Z,11.00
2023-01-10T08:44:32.903Z,10.80
2023-01-10T08:46:59.732Z,11.70
2023-01-10T08:49:26.543Z,11.40
2023-01-10T08:51:53.387Z,11.40
2023-01-10T08:54:20.115Z,11.00
2023-01-10T08:56:47.280Z,11.60
2023-01-10T08:59:14.173Z,11.20
2023-01-10T09:01:41.042Z,11.10
2023-01-10T09:04:07.991Z,11.80
2023-01-10T09:06:34.724Z,12.20
2023-01-10T09:09:01.430Z,13.30
2023-01-10T09:11:28.140Z,12.20
2023-01-10T09:13:54.849Z,12.30
2023-01-10T09:16:21.735Z,11.70
2023-01-10T09:18:48.664Z,11.50
2023-01-10T09:21:15.643Z,11.90
2023-01-10T09:23:43.708Z,12.00
2023-01-10T09:26:10.978Z,10.80
2023-01-10T09:28:37.867Z,11.00
2023-01-10T09:31:05.233Z,11.00
2023-01-10T09:33:45.210Z,10.50
2023-01-10T09:36:15.707Z,10.90
2023-01-10T09:38:43.103Z,11.50
2023-01-10T09:41:55.921Z,9.80
2023-01-10T09:44:39.964Z,11.30
2023-01-10T09:47:22.010Z,10.30
2023-01-10T09:50:06.509Z,10.60
2023-01-10T09:52:34.870Z,11.00
2023-01-10T09:55:25.117Z,10.40
2023-01-10T09:57:53.502Z,10.70
2023-01-10T10:00:23.034Z,9.10
2023-01-10T10:02:52.758Z,9.00
2023-01-10T10:05:20.874Z,9.70
2023-01-10T10:07:57.070Z,9.60
2023-01-10T10:10:35.538Z,8.80
2023-01-10T10:13:16.998Z,8.90
2023-01-10T10:16:00.665Z,9.10
2023-01-10T10:18:40.453Z,9.10
2023-01-10T10:21:23.195Z,8.00
2023-01-10T10:23:56.051Z,8.90
2023-01-10T10:26:46.392Z,9.10
2023-01-10T10:29:31.962Z,9.60
2023-01-10T10:32:01.866Z,9.50
2023-01-10T10:34:36.641Z,9.10
2023-01-10T10:37:15.598Z,8.80
2023-01-10T10:39:45.593Z,9.60
2023-01-10T10:42:15.115Z,8.90
2023-01-10T10:44:54.194Z,10.10
2023-01-10T10:47:22.507Z,8.80
2023-01-10T10:49:54.909Z,8.50
2023-01-10T10:52:34.641Z,9.60
2023-01-10T10:55:01.597Z,9.40
2023-01-10T10:57:28.853Z,9.20
2023-01-10T11:02:26.785Z,10.10
2023-01-10T11:04:57.362Z,9.70
2023-01-10T11:07:24.476Z,8.90
2023-01-10T11:09:54.925Z,9.30
2023-01-10T11:12:33.259Z,9.50
2023-01-10T11:15:01.827Z,8.80
2023-01-10T11:17:30.772Z,8.30
2023-01-10T11:19:57.488Z,9.50
2023-01-10T11:22:25.091Z,9.80
2023-01-10T11:24:59.873Z,9.10
2023-01-10T11:27:44.911Z,8.80
2023-01-10T11:30:32.560Z,8.80
2023-01-10T11:33:04.886Z,9.30
2023-01-10T11:35:38.881Z,9.20
2023-01-10T11:38:18.125Z,8.40
2023-01-10T11:41:15.286Z,9.40
2023-01-10T11:43:42.005Z,8.70
2023-01-10T11:46:26.316Z,8.70
2023-01-10T11:49:25.748Z,8.20
2023-01-10T11:52:26.082Z,8.30
2023-01-10T11:54:58.312Z,9.10
2023-01-10T11:57:26.762Z,8.70
2023-01-10T11:59:54.209Z,8.70
2023-01-10T12:02:23.904Z,7.80
2023-01-10T12:04:51.113Z,8.50
2023-01-10T12:10:00.946Z,8.30
2023-01-10T12:12:28.531Z,8.50
2023-01-10T12:14:56.616Z,8.10
2023-01-10T12:17:28.723Z,9.20
2023-01-10T12:19:58.585Z,8.70
2023-01-10T12:22:30.523Z,9.10
2023-01-10T12:24:57.283Z,8.80
2023-01-10T12:27:24.569Z,8.40
2023-01-10T12:30:12.604Z,8.70
2023-01-10T12:32:45.190Z,9.30
2023-01-10T12:35:24.511Z,9.90
2023-01-10T12:38:21.601Z,8.60
2023-01-10T12:40:58.745Z,10.10
2023-01-10T12:43:48.312Z,8.30
2023-01-10T12:46:46.827Z,8.50
2023-01-10T12:49:18.519Z,9.20
2023-01-10T12:51:46.281Z,8.20
2023-01-10T12:54:15.725Z,8.50
2023-01-10T12:56:42.432Z,9.10
2023-01-10T12:59:38.331Z,9.20
2023-01-10T13:02:07.283Z,7.90
2023-01-10T13:04:35.626Z,8.30
2023-01-10T13:07:02.337Z,9.80
2023-01-10T13:09:29.141Z,8.40
2023-01-10T13:12:14.924Z,7.80
2023-01-10T13:14:46.530Z,7.20
2023-01-10T13:17:47.223Z,8.30
2023-01-10T13:20:20.147Z,8.60
2023-01-10T13:22:57.850Z,8.90
2023-01-10T13:25:29.175Z,7.60
2023-01-10T13:28:02.827Z,8.90
2023-01-10T13:30:37.899Z,8.80
2023-01-10T13:33:06.475Z,8.60
2023-01-10T13:35:40.993Z,8.50
2023-01-10T13:38:27.220Z,8.50
2023-01-10T13:41:04.452Z,8.40
2023-01-10T13:43:34.810Z,7.70
2023-01-10T13:46:17.372Z,9.30
2023-01-10T13:48:50.451Z,7.90
2023-01-10T13:51:18.963Z,8.40
2023-01-10T13:53:55.268Z,7.60
2023-01-10T13:56:39.539Z,7.80
2023-01-10T13:59:18.403Z,7.20
2023-01-10T14:02:09.112Z,7.90
2023-01-10T14:04:39.099Z,7.30
2023-01-10T14:07:21.174Z,8.40
2023-01-10T14:09:48.172Z,9.50
2023-01-10T14:12:22.459Z,8.20
2023-01-10T14:14:57.916Z,7.70
2023-01-10T14:17:32.428Z,8.40
2023-01-10T14:20:02.190Z,8.10
2023-01-10T14:22:31.268Z,7.90
2023-01-10T14:25:02.605Z,7.70
2023-01-10T14:27:47.795Z,8.30
2023-01-10T14:30:33.007Z,8.70
2023-01-10T14:33:08.154Z,7.20
2023-01-10T14:35:39.702Z,7.50
2023-01-10T14:38:07.400Z,7.10
2023-01-10T14:40:44.882Z,7.90
2023-01-10T14:43:19.949Z,7.20
2023-01-10T14:46:11.039Z,8.10
2023-01-10T14:49:00.766Z,7.20
2023-01-10T14:51:28.907Z,7.10
2023-01-10T14:54:12.174Z,7.40
2023-01-10T14:56:43.551Z,7.90
2023-01-10T14:59:22.547Z,8.30
2023-01-10T15:01:50.525Z,7.80
2023-01-10T15:04:18.323Z,7.70
2023-01-10T15:07:00.325Z,7.50
2023-01-10T15:09:27.395Z,7.40
2023-01-10T15:11:54.134Z,7.70
2023-01-10T15:14:23.367Z,8.60
2023-01-10T15:16:50.081Z,6.90
2023-01-10T15:19:18.665Z,6.00
2023-01-10T15:21:45.898Z,6.40
2023-01-10T15:26:52.353Z,7.80
2023-01-10T15:29:22.386Z,8.90
2023-01-10T15:31:49.155Z,8.50
2023-01-10T15:34:18.252Z,7.60
2023-01-10T15:36:55.613Z,7.00
2023-01-10T15:39:23.980Z,7.60
2023-01-10T15:41:51.530Z,7.80
2023-01-10T15:44:23.153Z,7.60
2023-01-10T15:46:56.880Z,8.80
2023-01-10T15:49:28.225Z,9.70
2023-01-10T15:51:55.020Z,8.40
2023-01-10T15:54:21.758Z,9.00
2023-01-10T15:56:48.549Z,8.70
2023-01-10T15:59:28.403Z,8.30
2023-01-10T16:01:57.372Z,7.50
2023-01-10T16:04:24.184Z,8.40
2023-01-10T16:06:53.711Z,8.00
2023-01-10T16:09:21.789Z,9.70
2023-01-10T16:12:10.549Z,7.20
2023-01-10T16:14:37.969Z,6.50
2023-01-10T16:17:05.097Z,7.30
2023-01-10T16:19:31.836Z,6.90
2023-01-10T16:21:59.241Z,7.60
2023-01-10T16:24:28.116Z,7.40
2023-01-10T16:26:55.585Z,7.40
2023-01-10T16:29:22.796Z,7.50
2023-01-10T16:31:52.182Z,7.50
2023-01-10T16:34:19.653Z,7.50
2023-01-10T16:36:46.531Z,7.40
2023-01-10T16:39:17.077Z,6.90
2023-01-10T16:42:02.656Z,6.40
2023-01-10T16:44:29.734Z,6.90
2023-01-10T16:46:56.451Z,6.20
2023-01-10T16:49:23.270Z,6.40
2023-01-10T16:51:50.415Z,6.90
2023-01-10T16:54:21.231Z,7.20
2023-01-10T16:56:48.414Z,7.10
2023-01-10T16:59:16.227Z,7.40
2023-01-10T17:01:46.544Z,7.80
2023-01-10T17:04:20.012Z,6.30
2023-01-10T17:06:46.723Z,6.00
2023-01-10T17:09:22.879Z,6.20
2023-01-10T17:11:52.101Z,5.50
2023-01-10T17:14:18.903Z,6.70
2023-01-10T17:16:46.340Z,6.40
2023-01-10T17:19:13.119Z,5.30
2023-01-10T17:21:39.821Z,5.50
2023-01-10T17:24:09.501Z,5.50
2023-01-10T17:26:36.487Z,5.40
2023-01-10T17:29:03.352Z,5.90
2023-01-10T17:31:30.347Z,6.20
2023-01-10T17:33:57.393Z,5.90
2023-01-10T17:38:56.937Z,5.00
2023-01-10T17:41:23.639Z,5.40
2023-01-10T17:43:50.459Z,5.30
2023-01-10T17:46:17.916Z,5.60
2023-01-10T17:48:45.040Z,5.30
2023-01-10T17:51:13.230Z,6.10
2023-01-10T17:53:40.575Z,5.80
2023-01-10T17:58:34.447Z,5.40
2023-01-10T18:01:01.359Z,6.10
2023-01-10T18:03:28.909Z,5.30
2023-01-10T18:05:57.002Z,6.40
2023-01-10T18:08:24.054Z,7.60
2023-01-10T18:10:51.139Z,5.90
2023-01-10T18:13:18.664Z,5.60
2023-01-10T18:15:47.468Z,5.30
2023-01-10T18:18:14.562Z,6.40
2023-01-10T18:20:42.319Z,6.20
2023-01-10T18:23:21.434Z,5.80
2023-01-10T18:25:55.969Z,4.90
2023-01-10T18:28:39.901Z,6.50
2023-01-10T18:31:09.334Z,6.20
2023-01-10T18:33:36.062Z,5.50
2023-01-10T18:36:04.163Z,6.30
2023-01-10T18:38:32.379Z,5.80
2023-01-10T18:40:59.415Z,6.60
2023-01-10T18:43:26.132Z,5.70
2023-01-10T18:46:01.000Z,6.50
2023-01-10T18:48:27.724Z,6.10
2023-01-10T18:50:55.393Z,7.10
2023-01-10T18:53:22.208Z,6.80
2023-01-10T18:56:07.741Z,6.70
2023-01-10T18:58:36.012Z,7.20
2023-01-10T19:01:12.927Z,6.60
2023-01-10T19:03:39.987Z,6.70
2023-01-10T19:06:07.959Z,7.00
2023-01-10T19:08:36.509Z,6.50
2023-01-10T19:11:13.385Z,6.60
2023-01-10T19:13:41.740Z,7.10
2023-01-10T19:16:19.766Z,7.00
2023-01-10T19:18:53.906Z,6.40
2023-01-10T19:21:20.722Z,6.50
2023-01-10T19:23:49.209Z,6.20
2023-01-10T19:26:16.188Z,6.70
2023-01-10T19:28:43.832Z,7.80
2023-01-10T19:31:27.272Z,6.70
2023-01-10T19:33:54.317Z,9.30
2023-01-10T19:36:22.415Z,7.30
2023-01-10T19:38:54.044Z,6.60
2023-01-10T19:41:20.980Z,7.50
2023-01-10T19:43:47.806Z,5.90
2023-01-10T19:46:14.817Z,7.00
2023-01-10T19:48:41.619Z,8.60
2023-01-10T19:51:09.636Z,8.30
2023-01-10T19:53:37.317Z,7.80
2023-01-10T19:56:05.365Z,7.80
2023-01-10T19:58:32.973Z,6.70
2023-01-10T20:01:29.287Z,7.40
2023-01-10T20:03:57.147Z,6.90
2023-01-10T20:06:25.899Z,7.20
2023-01-10T20:08:54.264Z,7.20
2023-01-10T20:11:22.170Z,6.80
2023-01-10T20:13:49.451Z,6.80
2023-01-10T20:18:44.017Z,7.10
2023-01-10T20:21:12.026Z,6.10
2023-01-10T20:23:39.636Z,6.40
2023-01-10T20:26:22.759Z,7.70
2023-01-10T20:28:50.685Z,7.20
2023-01-10T20:31:20.173Z,6.80
2023-01-10T20:33:47.016Z,7.20
2023-01-10T20:36:16.273Z,7.20
2023-01-10T20:38:43.237Z,7.60
2023-01-10T20:41:18.601Z,7.30
2023-01-10T20:43:45.558Z,7.30
2023-01-10T20:46:14.315Z,7.30
2023-01-10T20:48:41.776Z,8.00
2023-01-10T20:51:11.145Z,7.80
2023-01-10T20:53:37.881Z,8.00
2023-01-10T20:56:06.073Z,8.80
2023-01-10T20:58:33.293Z,8.40
2023-01-10T21:03:26.841Z,8.10
2023-01-10T21:05:54.085Z,7.60
2023-01-10T21:10:48.180Z,7.30
2023-01-10T21:13:15.857Z,8.00
2023-01-10T21:15:43.820Z,7.50
2023-01-10T21:18:11.311Z,7.50
2023-01-10T21:20:42.270Z,7.80
2023-01-10T21:23:09.448Z,8.40
2023-01-10T21:25:36.434Z,7.80
2023-01-10T21:28:08.905Z,6.60
2023-01-10T21:30:36.559Z,7.40
2023-01-10T21:33:03.409Z,7.00
2023-01-10T21:35:30.422Z,6.80
2023-01-10T21:37:57.678Z,7.80
2023-01-10T21:42:52.639Z,7.00
2023-01-10T21:45:21.124Z,6.60
2023-01-10T21:47:50.986Z,6.80
2023-01-10T21:50:18.723Z,7.40
2023-01-10T21:52:46.406Z,7.70
2023-01-10T21:55:14.041Z,6.90
2023-01-10T21:57:40.752Z,7.50
2023-01-10T22:00:10.271Z,7.50
2023-01-10T22:02:39.548Z,7.10
2023-01-10T22:05:07.183Z,6.70
2023-01-10T22:07:33.872Z,7.10
2023-01-10T22:10:01.225Z,6.80
2023-01-10T22:12:28.792Z,6.80
2023-01-10T22:14:55.851Z,8.90
2023-01-10T22:17:22.838Z,7.30
2023-01-10T22:19:49.533Z,7.60
2023-01-10T22:22:17.514Z,7.50
2023-01-10T22:24:47.494Z,7.30
2023-01-10T22:27:15.399Z,7.10
2023-01-10T22:29:42.393Z,6.80
2023-01-10T22:32:09.512Z,6.30
2023-01-10T22:34:36.287Z,6.40
2023-01-10T22:37:03.122Z,6.80
2023-01-10T22:39:29.889Z,6.90
2023-01-10T22:41:56.748Z,7.10
2023-01-10T22:44:26.262Z,6.80
2023-01-10T22:46:54.178Z,8.10
2023-01-10T22:49:21.341Z,6.90
2023-01-10T22:51:48.122Z,6.50
2023-01-10T22:54:18.068Z,6.80
2023-01-10T22:56:45.923Z,6.80
2023-01-10T22:59:12.955Z,7.20
2023-01-10T23:01:39.928Z,6.90
2023-01-10T23:04:07.022Z,7.70
2023-01-10T23:09:00.658Z,7.40
2023-01-10T23:11:27.394Z,6.40
2023-01-10T23:13:54.144Z,6.60
2023-01-10T23:16:28.816Z,7.50
2023-01-10T23:18:56.957Z,6.70
2023-01-10T23:21:24.007Z,7.70
2023-01-10T23:23:50.746Z,8.40
2023-01-10T23:26:17.677Z,7.20
2023-01-10T23:28:47.173Z,7.00
2023-01-10T23:31:15.703Z,7.50
2023-01-10T23:33:42.480Z,7.40
2023-01-10T23:36:09.804Z,6.90
2023-01-10T23:38:36.595Z,6.90
2023-01-10T23:41:03.456Z,7.10
2023-01-10T23:43:30.213Z,7.20
2023-01-10T23:45:57.750Z,7.30
2023-01-10T23:48:24.689Z,7.50
2023-01-10T23:50:51.534Z,7.00
2023-01-10T23:53:18.442Z,7.50
2023-01-10T23:55:45.206Z,7.50
2023-01-10T23:58:12.099Z,7.20
